createdAt,value
2023-04-15T00:01:39.081Z,11.60
2023-04-15T00:04:13.352Z,11.50
2023-04-15T00:06:55.100Z,11.40
2023-04-15T00:09:29.226Z,11.60
2023-04-15T00:12:04.608Z,11.30
2023-04-15T00:14:38.538Z,11.30
2023-04-15T00:17:14.431Z,11.30
2023-04-15T00:19:48.602Z,11.20
2023-04-15T00:22:22.765Z,11.20
2023-04-15T00:24:56.796Z,11.10
2023-04-15T00:27:31.151Z,11.10
2023-04-15T00:30:08.593Z,11.00
2023-04-15T00:32:45.741Z,11.00
2023-04-15T00:35:20.509Z,10.90
2023-04-15T00:37:59.269Z,10.90
2023-04-15T00:40:34.671Z,10.90
2023-04-15T00:43:10.298Z,10.80
2023-04-15T00:45:44.194Z,10.80
2023-04-15T00:48:20.671Z,10.70
2023-04-15T00:50:54.682Z,10.70
2023-04-15T00:53:31.657Z,10.70
2023-04-15T00:56:05.747Z,10.60
2023-04-15T00:58:40.264Z,10.60
2023-04-15T01:01:16.128Z,10.50
2023-04-15T01:03:52.546Z,10.50
2023-04-15T01:06:28.569Z,10.50
2023-04-15T01:09:03.524Z,10.40
2023-04-15T01:11:38.670Z,10.40
2023-04-15T01:14:17.254Z,10.40
2023-04-15T01:16:53.211Z,10.30
2023-04-15T01:19:29.277Z,10.30
2023-04-15T01:22:07.750Z,10.30
2023-04-15T01:24:42.820Z,10.40
2023-04-15T01:27:21.842Z,10.20
2023-04-15T01:29:56.480Z,10.20
2023-04-15T01:32:31.326Z,10.20
2023-04-15T01:35:05.493Z,10.40
2023-04-15T01:37:40.671Z,10.10
2023-04-15T01:40:15.744Z,10.10
2023-04-15T01:42:51.497Z,10.00
2023-04-15T01:45:25.702Z,10.00
2023-04-15T01:47:59.467Z,10.00
2023-04-15T01:50:34.314Z,9.90
2023-04-15T01:53:08.902Z,9.90
2023-04-15T01:55:43.033Z,9.90
2023-04-15T01:58:18.723Z,9.80
2023-04-15T02:00:53.079Z,9.80
2023-04-15T02:03:27.972Z,9.80
2023-04-15T02:06:01.910Z,9.80
2023-04-15T02:08:36.249Z,9.70
2023-04-15T02:11:10.353Z,10.00
2023-04-15T02:13:46.755Z,9.70
2023-04-15T02:16:21.941Z,9.70
2023-04-15T02:18:57.544Z,9.60
2023-04-15T02:21:32.667Z,9.60
2023-04-15T02:24:07.411Z,9.60
2023-04-15T02:26:41.636Z,9.50
2023-04-15T02:29:17.657Z,9.50
2023-04-15T02:31:51.895Z,9.50
2023-04-15T02:34:27.503Z,9.40
2023-04-15T02:37:04.406Z,9.40
2023-04-15T02:39:38.428Z,9.40
2023-04-15T02:42:13.665Z,9.40
2023-04-15T02:44:49.276Z,9.40
2023-04-15T02:47:24.055Z,9.40
2023-04-15T02:50:01.081Z,9.30
2023-04-15T02:52:35.474Z,9.30
2023-04-15T02:55:11.747Z,9.20
2023-04-15T02:57:47.767Z,9.20
2023-04-15T03:00:25.704Z,9.30
2023-04-15T03:03:05.050Z,9.20
2023-04-15T03:05:45.395Z,9.10
2023-04-15T03:08:19.936Z,9.10
2023-04-15T03:10:54.581Z,9.40
2023-04-15T03:13:28.776Z,9.10
2023-04-15T03:16:04.402Z,9.10
2023-04-15T03:18:42.249Z,9.00
2023-04-15T03:21:19.953Z,9.10
2023-04-15T03:23:53.874Z,9.00
2023-04-15T03:26:30.061Z,9.00
2023-04-15T03:29:13.994Z,9.20
2023-04-15T03:31:49.576Z,9.00
2023-04-15T03:34:23.856Z,8.90
2023-04-15T03:37:01.556Z,8.90
2023-04-15T03:39:35.977Z,8.90
2023-04-15T03:42:12.031Z,8.90
2023-04-15T03:44:46.060Z,8.90
2023-04-15T03:47:22.683Z,8.90
2023-04-15T03:49:57.049Z,8.80
2023-04-15T03:52:31.602Z,8.80
2023-04-15T03:55:05.935Z,8.90
2023-04-15T03:57:40.103Z,8.80
2023-04-15T04:00:18.782Z,8.80
2023-04-15T04:02:55.427Z,8.80
2023-04-15T04:05:29.377Z,8.80
2023-04-15T04:08:03.818Z,8.80
2023-04-15T04:10:41.711Z,8.80
2023-04-15T04:13:15.817Z,8.80
2023-04-15T04:15:50.063Z,8.80
2023-04-15T04:18:26.338Z,8.70
2023-04-15T04:21:00.994Z,8.80
2023-04-15T04:23:36.620Z,8.70
2023-04-15T04:26:11.923Z,8.70
2023-04-15T04:28:50.173Z,8.70
2023-04-15T04:31:24.414Z,8.70
2023-04-15T04:33:59.648Z,8.70
2023-04-15T04:36:33.918Z,8.70
2023-04-15T04:39:21.033Z,8.70
2023-04-15T04:41:59.640Z,8.70
2023-04-15T04:44:39.170Z,8.70
2023-04-15T04:47:16.736Z,8.70
2023-04-15T04:49:52.558Z,8.80
2023-04-15T04:52:33.498Z,8.60
2023-04-15T04:55:09.090Z,8.60
2023-04-15T04:57:42.872Z,8.60
2023-04-15T05:00:25.695Z,8.60
2023-04-15T05:02:59.817Z,8.60
2023-04-15T05:05:35.761Z,8.60
2023-04-15T05:08:09.998Z,8.40
2023-04-15T05:10:47.371Z,8.80
2023-04-15T05:13:25.066Z,8.50
2023-04-15T05:15:59.244Z,8.80
2023-04-15T05:18:33.365Z,8.50
2023-04-15T05:21:09.774Z,8.50
2023-04-15T05:23:43.885Z,8.50
2023-04-15T05:26:22.421Z,8.50
2023-04-15T05:28:56.576Z,8.50
2023-04-15T05:31:30.527Z,8.60
2023-04-15T05:34:05.489Z,8.50
2023-04-15T05:36:43.918Z,8.50
2023-04-15T05:39:17.518Z,8.50
2023-04-15T05:41:51.412Z,8.50
2023-04-15T05:44:29.745Z,8.50
2023-04-15T05:47:04.535Z,8.50
2023-04-15T05:49:39.841Z,8.50
2023-04-15T05:52:20.768Z,8.60
2023-04-15T05:54:55.578Z,8.60
2023-04-15T05:57:29.873Z,8.60
2023-04-15T06:00:06.390Z,8.60
2023-04-15T06:02:40.638Z,8.70
2023-04-15T06:05:14.888Z,8.70
2023-04-15T06:07:51.555Z,8.70
2023-04-15T06:10:25.535Z,8.70
2023-04-15T06:12:59.156Z,8.80
2023-04-15T06:15:33.421Z,8.80
2023-04-15T06:18:09.230Z,9.00
2023-04-15T06:20:43.215Z,8.90
2023-04-15T06:23:18.673Z,8.90
2023-04-15T06:25:52.820Z,9.00
2023-04-15T06:28:26.475Z,9.10
2023-04-15T06:31:01.846Z,9.10
2023-04-15T06:33:44.324Z,9.10
2023-04-15T06:36:18.339Z,9.20
2023-04-15T06:38:53.542Z,9.20
2023-04-15T06:41:27.867Z,9.30
2023-04-15T06:44:02.427Z,9.30
2023-04-15T06:46:36.290Z,9.40
2023-04-15T06:49:10.066Z,9.40
2023-04-15T06:51:44.896Z,9.50
2023-04-15T06:54:20.954Z,9.50
2023-04-15T06:56:54.840Z,9.50
2023-04-15T06:59:30.464Z,9.60
2023-04-15T07:02:05.233Z,9.60
2023-04-15T07:04:40.428Z,9.70
2023-04-15T07:07:15.468Z,9.70
2023-04-15T07:09:50.910Z,9.70
2023-04-15T07:12:24.813Z,9.80
2023-04-15T07:14:58.801Z,9.90
2023-04-15T07:17:33.455Z,9.90
2023-04-15T07:20:09.512Z,10.00
2023-04-15T07:22:44.662Z,10.00
2023-04-15T07:25:21.952Z,10.10
2023-04-15T07:27:56.763Z,10.20
2023-04-15T07:30:32.867Z,10.30
2023-04-15T07:33:10.996Z,10.30
2023-04-15T07:35:47.559Z,10.70
2023-04-15T07:38:21.462Z,10.40
2023-04-15T07:40:57.154Z,10.50
2023-04-15T07:43:30.881Z,10.60
2023-04-15T07:46:05.228Z,10.60
2023-04-15T07:48:40.494Z,10.70
2023-04-15T07:51:14.739Z,10.80
2023-04-15T07:53:49.720Z,10.90
2023-04-15T07:56:26.704Z,10.90
2023-04-15T07:59:02.849Z,11.10
2023-04-15T08:01:37.546Z,11.10
2023-04-15T08:04:12.449Z,11.10
2023-04-15T08:06:50.067Z,11.40
2023-04-15T08:09:23.763Z,11.30
2023-04-15T08:11:59.761Z,11.30
2023-04-15T08:14:37.328Z,11.40
2023-04-15T08:17:13.992Z,11.50
2023-04-15T08:19:49.118Z,11.50
2023-04-15T08:22:23.121Z,11.60
2023-04-15T08:24:57.031Z,11.70
2023-04-15T08:27:32.552Z,11.70
2023-04-15T08:30:08.258Z,11.90
2023-04-15T08:32:46.849Z,12.10
2023-04-15T08:35:20.874Z,12.00
2023-04-15T08:37:55.417Z,12.10
2023-04-15T08:40:42.387Z,12.20
2023-04-15T08:43:39.852Z,12.30
2023-04-15T08:46:14.861Z,12.40
2023-04-15T08:48:50.057Z,12.50
2023-04-15T08:51:25.125Z,12.60
2023-04-15T08:54:02.797Z,12.70
2023-04-15T08:56:37.358Z,12.80
2023-04-15T08:59:17.160Z,12.90
2023-04-15T09:01:53.168Z,13.00
2023-04-15T09:04:27.082Z,13.00
2023-04-15T09:07:00.609Z,13.10
2023-04-15T09:09:34.845Z,13.20
2023-04-15T09:12:10.665Z,13.20
2023-04-15T09:14:50.336Z,13.30
2023-04-15T09:17:26.818Z,13.40
2023-04-15T09:20:15.343Z,13.50
2023-04-15T09:22:54.960Z,13.50
2023-04-15T09:25:33.480Z,13.60
2023-04-15T09:28:09.419Z,13.60
2023-04-15T09:32:20.568Z,13.60
2023-04-15T09:34:58.908Z,13.60
2023-04-15T09:37:37.742Z,13.60
2023-04-15T09:40:12.882Z,13.60
2023-04-15T09:42:59.492Z,13.60
2023-04-15T09:45:35.357Z,13.60
2023-04-15T09:48:24.494Z,13.60
2023-04-15T09:51:04.553Z,13.60
2023-04-15T09:53:47.682Z,13.60
2023-04-15T09:56:25.476Z,13.60
2023-04-15T09:59:07.698Z,13.60
2023-04-15T10:01:44.171Z,13.70
2023-04-15T10:04:18.574Z,13.70
2023-04-15T10:06:59.605Z,13.70
2023-04-15T10:09:34.939Z,13.70
2023-04-15T10:12:11.888Z,13.80
2023-04-15T10:14:50.978Z,13.80
2023-04-15T10:17:28.454Z,13.90
2023-04-15T10:20:09.577Z,13.80
2023-04-15T10:22:49.555Z,13.90
2023-04-15T10:25:26.852Z,13.90
2023-04-15T10:28:03.621Z,13.90
2023-04-15T10:30:39.572Z,13.90
2023-04-15T10:33:18.093Z,13.90
2023-04-15T10:35:57.713Z,14.00
2023-04-15T10:38:53.996Z,14.00
2023-04-15T10:41:34.888Z,14.00
2023-04-15T10:44:09.005Z,14.00
2023-04-15T10:46:45.757Z,14.00
2023-04-15T10:49:28.178Z,14.00
2023-04-15T10:52:03.653Z,14.10
2023-04-15T10:54:39.725Z,14.10
2023-04-15T10:57:23.446Z,14.10
2023-04-15T11:00:20.924Z,14.10
2023-04-15T11:03:00.463Z,14.10
2023-04-15T11:05:55.115Z,14.20
2023-04-15T11:09:10.225Z,14.20
2023-04-15T11:12:10.060Z,14.20
2023-04-15T11:14:49.243Z,14.40
2023-04-15T11:17:30.820Z,14.20
2023-04-15T11:20:40.931Z,14.20
2023-04-15T11:23:17.370Z,14.20
2023-04-15T11:25:51.798Z,14.20
2023-04-15T11:28:32.331Z,14.20
2023-04-15T11:31:15.764Z,14.10
2023-04-15T11:36:46.948Z,14.10
2023-04-15T11:39:26.153Z,14.10
2023-04-15T11:42:00.399Z,14.10
2023-04-15T11:44:37.864Z,14.10
2023-04-15T11:47:29.163Z,14.00
2023-04-15T11:50:31.185Z,14.00
2023-04-15T11:53:10.393Z,14.00
2023-04-15T11:55:46.846Z,14.00
2023-04-15T11:58:23.549Z,14.00
2023-04-15T12:01:02.703Z,13.90
2023-04-15T12:03:45.402Z,13.90
2023-04-15T12:06:23.587Z,13.90
2023-04-15T12:09:20.634Z,13.90
2023-04-15T12:12:00.117Z,13.90
2023-04-15T12:14:35.698Z,13.90
2023-04-15T12:17:14.566Z,13.90
2023-04-15T12:19:58.467Z,13.80
2023-04-15T12:22:32.491Z,13.80
2023-04-15T12:25:07.454Z,13.80
2023-04-15T12:27:52.166Z,13.80
2023-04-15T12:30:26.397Z,13.80
2023-04-15T12:33:03.057Z,13.80
2023-04-15T12:35:48.871Z,13.70
2023-04-15T12:38:22.927Z,13.70
2023-04-15T12:40:56.761Z,13.70
2023-04-15T12:43:31.641Z,13.70
2023-04-15T12:46:10.589Z,13.70
2023-04-15T12:48:46.476Z,13.70
2023-04-15T12:51:21.812Z,13.70
2023-04-15T12:53:55.832Z,13.60
2023-04-15T12:56:30.201Z,13.60
2023-04-15T12:59:04.048Z,13.70
2023-04-15T13:01:38.026Z,13.70
2023-04-15T13:04:13.668Z,13.70
2023-04-15T13:06:50.714Z,13.70
2023-04-15T13:09:27.286Z,13.70
2023-04-15T13:12:02.514Z,13.70
2023-04-15T13:14:36.428Z,13.70
2023-04-15T13:17:11.900Z,13.70
2023-04-15T13:19:47.096Z,13.80
2023-04-15T13:22:21.634Z,13.80
2023-04-15T13:24:56.970Z,13.80
2023-04-15T13:27:31.935Z,13.80
2023-04-15T13:30:18.532Z,13.80
2023-04-15T13:32:54.284Z,13.80
2023-04-15T13:35:29.608Z,13.80
2023-04-15T13:38:03.689Z,13.80
2023-04-15T13:40:37.854Z,13.80
2023-04-15T13:43:12.055Z,13.90
2023-04-15T13:45:46.378Z,13.90
2023-04-15T13:48:20.180Z,13.80
2023-04-15T13:50:55.735Z,13.80
2023-04-15T13:53:37.803Z,13.80
2023-04-15T13:56:13.743Z,13.80
2023-04-15T13:58:47.296Z,13.80
2023-04-15T14:01:30.833Z,13.80
2023-04-15T14:04:05.344Z,13.80
2023-04-15T14:06:41.224Z,13.80
2023-04-15T14:09:18.570Z,13.80
2023-04-15T14:11:53.196Z,13.80
2023-04-15T14:14:27.428Z,13.80
2023-04-15T14:17:01.476Z,13.80
2023-04-15T14:19:37.755Z,13.70
2023-04-15T14:22:13.607Z,13.70
2023-04-15T14:24:48.992Z,13.70
2023-04-15T14:27:25.678Z,13.70
2023-04-15T14:29:59.731Z,13.70
2023-04-15T14:32:33.458Z,13.60
2023-04-15T14:35:08.367Z,13.60
2023-04-15T14:37:45.081Z,13.60
2023-04-15T14:40:19.465Z,13.60
2023-04-15T14:42:53.477Z,13.60
2023-04-15T14:45:27.996Z,13.60
2023-04-15T14:48:02.067Z,13.50
2023-04-15T14:50:36.420Z,13.60
2023-04-15T14:53:12.030Z,13.50
2023-04-15T14:55:46.375Z,13.50
2023-04-15T14:58:20.602Z,13.50
2023-04-15T15:00:55.653Z,13.50
2023-04-15T15:03:33.077Z,13.50
2023-04-15T15:06:07.176Z,13.40
2023-04-15T15:08:44.937Z,13.40
2023-04-15T15:11:18.961Z,13.50
2023-04-15T15:13:52.896Z,13.40
2023-04-15T15:16:30.128Z,13.40
2023-04-15T15:19:05.306Z,13.40
2023-04-15T15:21:39.309Z,13.40
2023-04-15T15:24:14.778Z,13.40
2023-04-15T15:26:50.217Z,13.30
2023-04-15T15:29:26.812Z,13.30
2023-04-15T15:32:02.090Z,13.30
2023-04-15T15:34:36.053Z,13.30
2023-04-15T15:37:10.014Z,13.30
2023-04-15T15:39:52.177Z,13.30
2023-04-15T15:42:27.219Z,13.30
2023-04-15T15:45:01.372Z,13.30
2023-04-15T15:47:35.406Z,13.30
2023-04-15T15:50:11.280Z,13.30
2023-04-15T15:52:53.087Z,13.30
2023-04-15T15:55:33.406Z,13.20
2023-04-15T15:58:07.411Z,13.30
2023-04-15T16:00:41.504Z,13.20
2023-04-15T16:03:15.528Z,13.20
2023-04-15T16:05:51.206Z,13.20
2023-04-15T16:08:27.626Z,13.20
2023-04-15T16:11:04.646Z,13.10
2023-04-15T16:13:38.622Z,13.10
2023-04-15T16:16:12.734Z,13.10
2023-04-15T16:18:47.045Z,13.10
2023-04-15T16:21:21.259Z,13.00
2023-04-15T16:23:56.295Z,13.30
2023-04-15T16:26:31.536Z,13.20
2023-04-15T16:29:05.810Z,13.00
2023-04-15T16:31:46.082Z,13.00
2023-04-15T16:34:20.427Z,13.00
2023-04-15T16:36:54.750Z,12.90
2023-04-15T16:39:29.172Z,12.90
2023-04-15T16:42:05.117Z,12.90
2023-04-15T16:44:42.408Z,13.00
2023-04-15T16:47:16.930Z,12.90
2023-04-15T16:49:51.272Z,13.10
2023-04-15T16:52:26.304Z,12.80
2023-04-15T16:55:00.145Z,12.80
2023-04-15T16:58:00.893Z,12.80
2023-04-15T17:00:29.610Z,12.80
2023-04-15T17:03:04.241Z,12.90
2023-04-15T17:05:38.579Z,12.80
2023-04-15T17:08:12.521Z,12.80
2023-04-15T17:10:46.718Z,12.80
2023-04-15T17:13:22.337Z,12.80
2023-04-15T17:15:56.353Z,12.80
2023-04-15T17:18:30.245Z,12.70
2023-04-15T17:21:04.356Z,12.70
2023-04-15T17:23:40.222Z,12.70
2023-04-15T17:26:13.590Z,12.70
2023-04-15T17:28:48.544Z,12.60
2023-04-15T17:31:22.405Z,12.60
2023-04-15T17:34:09.118Z,12.60
2023-04-15T17:36:44.179Z,12.60
2023-04-15T17:39:19.526Z,12.60
2023-04-15T17:41:53.439Z,12.60
2023-04-15T17:44:28.710Z,12.50
2023-04-15T17:47:02.636Z,12.50
2023-04-15T17:49:37.951Z,12.50
2023-04-15T17:52:12.997Z,12.40
2023-04-15T17:54:47.894Z,12.40
2023-04-15T17:57:26.925Z,12.40
2023-04-15T18:00:02.427Z,12.40
2023-04-15T18:02:37.431Z,12.30
2023-04-15T18:05:14.976Z,12.30
2023-04-15T18:07:49.082Z,12.30
2023-04-15T18:10:24.365Z,12.30
2023-04-15T18:13:01.040Z,12.60
2023-04-15T18:15:40.268Z,12.30
2023-04-15T18:18:14.259Z,12.30
2023-04-15T18:20:50.951Z,12.20
2023-04-15T18:23:24.474Z,12.20
2023-04-15T18:25:59.054Z,12.20
2023-04-15T18:28:34.989Z,12.30
2023-04-15T18:31:10.550Z,12.20
2023-04-15T18:33:43.971Z,12.20
2023-04-15T18:36:17.811Z,12.20
2023-04-15T18:38:51.550Z,12.10
2023-04-15T18:41:27.660Z,12.20
2023-04-15T18:44:01.778Z,12.10
2023-04-15T18:46:37.353Z,12.20
2023-04-15T18:49:15.009Z,12.20
2023-04-15T18:51:48.408Z,12.10
2023-04-15T18:54:22.056Z,12.10
2023-04-15T18:56:56.563Z,12.10
2023-04-15T18:59:30.859Z,12.10
2023-04-15T19:02:07.807Z,12.10
2023-04-15T19:04:41.790Z,12.10
2023-04-15T19:07:15.696Z,12.10
2023-04-15T19:09:49.401Z,12.10
2023-04-15T19:12:23.225Z,12.10
2023-04-15T19:14:57.252Z,12.10
2023-04-15T19:17:32.725Z,12.10
2023-04-15T19:20:08.096Z,12.00
2023-04-15T19:22:43.341Z,12.10
2023-04-15T19:25:17.284Z,12.00
2023-04-15T19:27:51.204Z,12.00
2023-04-15T19:30:25.992Z,12.00
2023-04-15T19:33:03.921Z,12.00
2023-04-15T19:35:38.488Z,12.00
2023-04-15T19:38:12.395Z,12.00
2023-04-15T19:40:49.530Z,12.00
2023-04-15T19:43:24.824Z,11.90
2023-04-15T19:45:59.002Z,12.00
2023-04-15T19:48:34.831Z,11.90
2023-04-15T19:51:08.890Z,11.90
2023-04-15T19:53:49.844Z,12.00
2023-04-15T19:56:24.250Z,12.00
2023-04-15T19:59:00.106Z,11.90
2023-04-15T20:01:36.056Z,11.90
2023-04-15T20:04:11.978Z,11.90
2023-04-15T20:06:46.246Z,11.90
2023-04-15T20:09:24.503Z,11.90
2023-04-15T20:12:46.817Z,11.90
2023-04-15T20:14:52.829Z,11.90
2023-04-15T20:17:26.727Z,11.90
2023-04-15T20:20:02.493Z,11.90
2023-04-15T20:22:36.417Z,11.80
2023-04-15T20:25:10.984Z,11.90
2023-04-15T20:27:45.002Z,11.80
2023-04-15T20:30:19.189Z,12.10
2023-04-15T20:32:53.609Z,11.80
2023-04-15T20:35:31.134Z,11.80
2023-04-15T20:38:06.166Z,11.80
2023-04-15T20:40:41.640Z,11.80
2023-04-15T20:43:15.871Z,11.80
2023-04-15T20:45:50.786Z,11.80
2023-04-15T20:48:28.451Z,11.70
2023-04-15T20:51:03.662Z,11.70
2023-04-15T20:53:37.543Z,11.70
2023-04-15T20:56:14.146Z,11.80
2023-04-15T20:58:49.957Z,11.70
2023-04-15T21:01:23.630Z,11.70
2023-04-15T21:03:59.857Z,11.70
2023-04-15T21:06:35.627Z,11.70
2023-04-15T21:09:09.172Z,11.70
2023-04-15T21:11:57.445Z,11.70
2023-04-15T21:14:35.021Z,11.70
2023-04-15T21:17:11.053Z,11.70
2023-04-15T21:19:45.230Z,11.70
2023-04-15T21:22:24.047Z,11.70
2023-04-15T21:24:57.590Z,11.70
2023-04-15T21:27:34.137Z,11.70
2023-04-15T21:30:12.015Z,11.70
2023-04-15T21:32:46.183Z,11.70
2023-04-15T21:35:20.211Z,11.70
2023-04-15T21:37:57.461Z,11.70
2023-04-15T21:40:31.551Z,11.70
2023-04-15T21:43:05.618Z,11.70
2023-04-15T21:45:39.946Z,11.70
2023-04-15T21:48:14.218Z,11.70
2023-04-15T21:50:51.155Z,11.70
2023-04-15T21:53:26.440Z,11.70
2023-04-15T21:56:00.754Z,11.80
2023-04-15T21:58:34.652Z,11.70
2023-04-15T22:01:08.660Z,11.70
2023-04-15T22:03:55.102Z,11.70
2023-04-15T22:06:29.104Z,11.50
2023-04-15T22:09:04.437Z,11.70
2023-04-15T22:11:38.332Z,11.70
2023-04-15T22:14:11.785Z,11.70
2023-04-15T22:16:49.231Z,11.70
2023-04-15T22:19:23.151Z,11.70
2023-04-15T22:21:58.368Z,11.70
2023-04-15T22:24:40.326Z,11.70
2023-04-15T22:27:15.088Z,11.70
2023-04-15T22:29:48.888Z,11.70
2023-04-15T22:32:22.791Z,11.70
2023-04-15T22:34:57.047Z,11.70
2023-04-15T22:37:31.114Z,11.70
2023-04-15T22:40:07.228Z,11.70
2023-04-15T22:42:41.234Z,11.70
2023-04-15T22:45:17.319Z,11.70
2023-04-15T22:47:51.331Z,11.70
2023-04-15T22:50:25.325Z,11.70
2023-04-15T22:52:58.873Z,11.70
2023-04-15T22:55:34.338Z,11.70
2023-04-15T22:58:08.126Z,11.70
2023-04-15T23:00:45.097Z,11.70
2023-04-15T23:03:19.079Z,11.70
2023-04-15T23:05:52.813Z,11.70
2023-04-15T23:08:27.007Z,11.70
2023-04-15T23:11:02.220Z,11.70
2023-04-15T23:13:38.227Z,11.70
2023-04-15T23:16:14.844Z,11.60
2023-04-15T23:18:48.778Z,11.70
2023-04-15T23:21:24.248Z,11.70
2023-04-15T23:23:59.827Z,11.70
2023-04-15T23:26:35.402Z,11.70
2023-04-15T23:29:10.577Z,12.00
2023-04-15T23:31:47.354Z,11.70
2023-04-15T23:34:21.288Z,11.70
2023-04-15T23:36:55.152Z,11.70
2023-04-15T23:39:32.345Z,11.70
2023-04-15T23:42:10.496Z,11.70
2023-04-15T23:44:47.095Z,11.60
2023-04-15T23:47:20.874Z,11.70
2023-04-15T23:49:55.756Z,11.70
2023-04-15T23:52:31.899Z,11.70
2023-04-15T23:55:05.971Z,11.70
2023-04-15T23:57:42.289Z,11.70
